Craig G — WDB5332 — position and weather

sailwx.info

Track history (hours):
 
Tides and Currents Weather Stations Pressure Air Temp Water Temp Dewpoint Dewpoint Depression Visibility Wind Speed Wind Dir Waves Ship Positions

Craig G

Owner: San Diego Towing & Marine Services,Inc., San Diego, CA. More information available from US FCC via Universal Licensing System and Coast Guard Vessel Documentation Center.

Last reported at 2015-May-28 02:33 UTC. Time now 2015-May-28 06:04 UTC.
Position N 32°41' W 117°14'.

Length 28 m; draft 2 m.

Type: Other ship. MMSI: 366908460.

Date/timePositionNaut miles runAvg speedWind from/ knotsBaromVisibWave heightAir tempDewpointWater temp
2015-May-28 02:33N 32°41' W 117°14'0 0.0
2015-May-28 01:24N 32°41' W 117°14'2 2.0
2015-May-28 00:31N 32°43' W 117°14'0 0.2
2015-May-27 23:30N 32°43' W 117°14'6 5.9
2015-May-27 22:33N 32°40' W 117°19'1717.4
2015-May-27 21:33N 32°45' W 117°38'1717.2
2015-May-27 20:33N 32°51' W 117°58'1717.0
2015-May-27 19:33N 32°56' W 118°17'8 5.7
2015-May-27 18:09N 32°59' W 118°26'1514.0
2015-May-27 17:05N 32°55' W 118°09'816.1
2015-May-27 16:33N 32°52' W 117°59'1616.1
2015-May-27 15:33N 32°46' W 117°41'1616.2
2015-May-27 14:33N 32°41' W 117°23'8 6.3
2015-May-27 13:22N 32°41' W 117°14'0 0.0
2015-May-27 04:06N 32°41' W 117°14'0 0.0
2015-May-27 03:10N 32°41' W 117°14'0 0.0
2015-May-27 02:26N 32°41' W 117°14'0 0.0
2015-May-27 01:13N 32°41' W 117°14'811.6
2015-May-27 00:33N 32°38' W 117°22'1716.7
2015-May-26 23:33N 32°44' W 117°41'1716.7
2015-May-26 22:33N 32°50' W 117°60'1716.6
2015-May-26 21:30N 32°56' W 118°19'8 6.3
2015-May-26 20:13N 32°58' W 118°28'2 2.5
2015-May-26 19:33N 32°58' W 118°26'25 8.3
2015-May-26 16:33N 32°51' W 117°58'1616.3
2015-May-26 15:33N 32°45' W 117°40'1716.5
2015-May-26 14:33N 32°40' W 117°21'6 4.4
2015-May-26 13:11N 32°41' W 117°14'0 0.0
2015-May-26 11:31N 32°41' W 117°14'  
2015-May-22 15:33N 32°41' W 117°14'0 0.0
2015-May-21 22:30N 32°41' W 117°14'1 0.3
2015-May-21 18:34N 32°42' W 117°14'4 4.3
2015-May-21 17:34N 32°42' W 117°09'0 0.0
2015-May-20 21:33N 32°42' W 117°09'1 0.5
2015-May-20 20:34N 32°41' W 117°09'4 4.3
2015-May-20 19:31N 32°39' W 117°13'3 2.9
2015-May-20 18:32N 32°42' W 117°14'4 4.0
2015-May-20 17:33N 32°42' W 117°09'0 0.0
2015-May-20 15:05N 32°42' W 117°09'4 7.7
2015-May-20 14:33N 32°40' W 117°14'1313.1
2015-May-20 13:33N 32°50' W 117°24'1817.6
2015-May-20 12:33N 33°05' W 117°36'1817.7
2015-May-20 11:33N 33°19' W 117°48'3316.6
2015-May-20 09:33N 33°45' W 118°13'1 0.1
2015-May-19 22:13N 33°46' W 118°13'0 0.1
2015-May-19 21:34N 33°46' W 118°13'0 0.0
2015-May-19 20:34N 33°46' W 118°13'3 2.5
2015-May-19 19:23N 33°43' W 118°14'0 0.0
2015-May-19 16:08N 33°43' W 118°14'3 5.2
2015-May-19 15:33N 33°46' W 118°13'0 0.0
2015-May-19 14:33N 33°46' W 118°13'  
Track history (hours):
 
Tides and Currents Weather Stations Pressure Air Temp Water Temp Dewpoint Dewpoint Depression Visibility Wind Speed Wind Dir Waves Ship Positions

Craig G

Owner: San Diego Towing & Marine Services,Inc., San Diego, CA. More information available from US FCC via Universal Licensing System and Coast Guard Vessel Documentation Center.

Last reported at 2015-May-28 02:33 UTC. Time now 2015-May-28 06:04 UTC.
Position N 32°41' W 117°14'.

Length 28 m; draft 2 m.

Type: Other ship. MMSI: 366908460.

Date/timePositionNaut miles runAvg speedWind from/ knotsBaromVisibWave heightAir tempDewpointWater temp
2015-May-28 02:33N 32°41' W 117°14'0 0.0
2015-May-28 01:24N 32°41' W 117°14'2 2.0
2015-May-28 00:31N 32°43' W 117°14'0 0.2
2015-May-27 23:30N 32°43' W 117°14'6 5.9
2015-May-27 22:33N 32°40' W 117°19'1717.4
2015-May-27 21:33N 32°45' W 117°38'1717.2
2015-May-27 20:33N 32°51' W 117°58'1717.0
2015-May-27 19:33N 32°56' W 118°17'8 5.7
2015-May-27 18:09N 32°59' W 118°26'1514.0
2015-May-27 17:05N 32°55' W 118°09'816.1
2015-May-27 16:33N 32°52' W 117°59'1616.1
2015-May-27 15:33N 32°46' W 117°41'1616.2
2015-May-27 14:33N 32°41' W 117°23'8 6.3
2015-May-27 13:22N 32°41' W 117°14'0 0.0
2015-May-27 04:06N 32°41' W 117°14'0 0.0
2015-May-27 03:10N 32°41' W 117°14'0 0.0
2015-May-27 02:26N 32°41' W 117°14'0 0.0
2015-May-27 01:13N 32°41' W 117°14'811.6
2015-May-27 00:33N 32°38' W 117°22'1716.7
2015-May-26 23:33N 32°44' W 117°41'1716.7
2015-May-26 22:33N 32°50' W 117°60'1716.6
2015-May-26 21:30N 32°56' W 118°19'8 6.3
2015-May-26 20:13N 32°58' W 118°28'2 2.5
2015-May-26 19:33N 32°58' W 118°26'25 8.3
2015-May-26 16:33N 32°51' W 117°58'1616.3
2015-May-26 15:33N 32°45' W 117°40'1716.5
2015-May-26 14:33N 32°40' W 117°21'6 4.4
2015-May-26 13:11N 32°41' W 117°14'0 0.0
2015-May-26 11:31N 32°41' W 117°14'  
2015-May-22 15:33N 32°41' W 117°14'0 0.0
2015-May-21 22:30N 32°41' W 117°14'1 0.3
2015-May-21 18:34N 32°42' W 117°14'4 4.3
2015-May-21 17:34N 32°42' W 117°09'0 0.0
2015-May-20 21:33N 32°42' W 117°09'1 0.5
2015-May-20 20:34N 32°41' W 117°09'4 4.3
2015-May-20 19:31N 32°39' W 117°13'3 2.9
2015-May-20 18:32N 32°42' W 117°14'4 4.0
2015-May-20 17:33N 32°42' W 117°09'0 0.0
2015-May-20 15:05N 32°42' W 117°09'4 7.7
2015-May-20 14:33N 32°40' W 117°14'1313.1
2015-May-20 13:33N 32°50' W 117°24'1817.6
2015-May-20 12:33N 33°05' W 117°36'1817.7
2015-May-20 11:33N 33°19' W 117°48'3316.6
2015-May-20 09:33N 33°45' W 118°13'1 0.1
2015-May-19 22:13N 33°46' W 118°13'0 0.1
2015-May-19 21:34N 33°46' W 118°13'0 0.0
2015-May-19 20:34N 33°46' W 118°13'3 2.5
2015-May-19 19:23N 33°43' W 118°14'0 0.0
2015-May-19 16:08N 33°43' W 118°14'3 5.2
2015-May-19 15:33N 33°46' W 118°13'0 0.0
2015-May-19 14:33N 33°46' W 118°13'  

Dump ship's entire track history